Time;durP1;ratioP1;P1;durP2;ratioP2;P2;SDS_P1;SDS_P2;PMS_P1;PMS_P2;Temp;Humidity;BMP_temperature;BMP_pressure;BME280_temperature;BME280_humidity;BME280_pressure;Samples;Min_cycle;Max_cycle;Signal;HPM_P1;HPM_P2
2024/01/20 00:00:03;;;;;;;41.97;27.45;;;;;;;;;;464946;29;1338;-87
2024/01/20 00:00:19;;;;;;;42.13;30.17;;;;;;;;;;466212;29;1090;-87
2024/01/20 00:00:34;;;;;;;56.55;40.55;;;;;;;;;;466605;29;980;-85
2024/01/20 00:00:50;;;;;;;64.10;44.80;;;;;;;;;;461856;29;1073;-87
2024/01/20 00:01:05;;;;;;;56.77;40.07;;;;;;;;;;463255;29;944;-87
2024/01/20 00:01:21;;;;;;;50.63;35.93;;;;;;;;;;464367;29;1178;-87
2024/01/20 00:01:37;;;;;;;47.92;33.80;;;;;;;;;;469248;28;1372;-87
2024/01/20 00:01:52;;;;;;;45.50;31.47;;;;;;;;;;466063;28;930;-87
2024/01/20 00:02:08;;;;;;;44.58;30.38;;;;;;;;;;479012;28;1283;-87
2024/01/20 00:02:23;;;;;;;40.43;27.87;;;;;;;;;;469349;28;1080;-87
2024/01/20 00:02:39;;;;;;;38.20;26.13;;;;;;;;;;474879;28;871;-86
2024/01/20 00:02:54;;;;;;;38.50;26.67;;;;;;;;;;482971;28;1295;-85
2024/01/20 00:03:10;;;;;;;40.50;27.65;;;;;;;;;;470310;28;1261;-87
2024/01/20 00:03:25;;;;;;;41.53;29.43;;;;;;;;;;468569;28;1032;-87
2024/01/20 00:03:40;;;;;;;42.43;30.40;;;;;;;;;;474645;28;1182;-87
2024/01/20 00:03:56;;;;;;;40.72;28.65;;;;;;;;;;468475;28;1094;-87
2024/01/20 00:04:11;;;;;;;37.67;26.90;;;;;;;;;;467465;28;1088;-88
2024/01/20 00:04:27;;;;;;;38.95;27.23;;;;;;;;;;466922;28;1242;-87
2024/01/20 00:04:42;;;;;;;40.53;27.90;;;;;;;;;;473142;28;982;-87
2024/01/20 00:04:57;;;;;;;39.00;27.05;;;;;;;;;;467532;28;908;-87
2024/01/20 00:05:13;;;;;;;38.30;26.40;;;;;;;;;;466568;28;1386;-87
2024/01/20 00:05:28;;;;;;;37.57;26.20;;;;;;;;;;467087;28;1230;-87
2024/01/20 00:05:44;;;;;;;37.50;25.88;;;;;;;;;;471223;28;1052;-87
2024/01/20 00:05:59;;;;;;;37.67;25.93;;;;;;;;;;463063;29;1300;-87
2024/01/20 00:06:15;;;;;;;38.15;26.25;;;;;;;;;;463298;28;1342;-87
2024/01/20 00:06:30;;;;;;;38.73;26.33;;;;;;;;;;464028;29;1430;-86
2024/01/20 00:06:46;;;;;;;37.83;25.75;;;;;;;;;;468391;29;1208;-87
2024/01/20 00:07:01;;;;;;;37.10;25.38;;;;;;;;;;463310;28;1038;-87
2024/01/20 00:07:17;;;;;;;36.07;25.37;;;;;;;;;;468801;28;962;-87
2024/01/20 00:07:33;;;;;;;35.83;25.30;;;;;;;;;;468477;28;1075;-86
2024/01/20 00:07:48;;;;;;;35.50;25.30;;;;;;;;;;465975;28;1410;-87
2024/01/20 00:08:04;;;;;;;35.23;25.33;;;;;;;;;;465359;28;1221;-87
2024/01/20 00:08:19;;;;;;;36.37;25.73;;;;;;;;;;463081;28;1432;-86
2024/01/20 00:08:35;;;;;;;37.40;25.80;;;;;;;;;;468151;28;1218;-87
2024/01/20 00:08:50;;;;;;;37.25;25.30;;;;;;;;;;464112;28;1194;-87
2024/01/20 00:09:07;;;;;;;37.80;25.40;;;;;;;;;;466700;28;1064;-86
2024/01/20 00:09:22;;;;;;;35.85;24.75;;;;;;;;;;466854;28;1317;-86
2024/01/20 00:09:38;;;;;;;34.10;24.20;;;;;;;;;;473825;28;1233;-88
2024/01/20 00:09:53;;;;;;;32.97;23.90;;;;;;;;;;466440;28;1467;-86
2024/01/20 00:10:11;;;;;;;34.80;24.53;;;;;;;;;;471083;28;1157;-86
2024/01/20 00:10:27;;;;;;;35.42;24.92;;;;;;;;;;469523;28;1027;-87
2024/01/20 00:10:42;;;;;;;35.47;25.00;;;;;;;;;;473434;28;1223;-87
2024/01/20 00:10:58;;;;;;;35.53;24.63;;;;;;;;;;463836;28;998;-86
2024/01/20 00:11:13;;;;;;;34.10;23.98;;;;;;;;;;466323;29;1107;-87
2024/01/20 00:11:29;;;;;;;35.92;24.75;;;;;;;;;;463506;29;1231;-87
2024/01/20 00:11:44;;;;;;;36.17;25.07;;;;;;;;;;469403;28;911;-88
2024/01/20 00:12:00;;;;;;;35.13;25.03;;;;;;;;;;463082;29;1222;-87
2024/01/20 00:12:15;;;;;;;36.40;25.27;;;;;;;;;;461605;29;1439;-87
2024/01/20 00:12:33;;;;;;;35.75;25.05;;;;;;;;;;462246;29;1273;-86
2024/01/20 00:12:49;;;;;;;36.25;25.52;;;;;;;;;;465418;29;1377;-87
2024/01/20 00:13:05;;;;;;;37.42;25.60;;;;;;;;;;478611;28;1312;-86
2024/01/20 00:13:20;;;;;;;37.10;25.00;;;;;;;;;;467588;28;1213;-87
2024/01/20 00:13:35;;;;;;;37.27;25.10;;;;;;;;;;473236;28;1185;-86
2024/01/20 00:13:51;;;;;;;37.17;25.13;;;;;;;;;;465722;28;1053;-87
2024/01/20 00:14:07;;;;;;;36.90;25.10;;;;;;;;;;462098;29;1384;-87
2024/01/20 00:14:22;;;;;;;36.93;25.60;;;;;;;;;;462368;29;1423;-87
2024/01/20 00:14:37;;;;;;;37.53;26.10;;;;;;;;;;469017;29;1353;-87
2024/01/20 00:14:53;;;;;;;38.03;26.00;;;;;;;;;;462570;29;1056;-87
2024/01/20 00:15:09;;;;;;;35.73;24.67;;;;;;;;;;461954;29;1408;-87
2024/01/20 00:15:24;;;;;;;35.20;24.58;;;;;;;;;;462106;29;1296;-87
2024/01/20 00:15:40;;;;;;;35.03;24.63;;;;;;;;;;471399;29;1356;-88
2024/01/20 00:15:55;;;;;;;35.50;24.60;;;;;;;;;;464595;28;1022;-87
2024/01/20 00:16:11;;;;;;;35.40;25.10;;;;;;;;;;462794;28;1978;-87
2024/01/20 00:16:26;;;;;;;35.20;24.90;;;;;;;;;;464480;29;1037;-86
2024/01/20 00:16:41;;;;;;;36.70;24.85;;;;;;;;;;469567;29;939;-87
2024/01/20 00:16:57;;;;;;;36.27;24.83;;;;;;;;;;461210;29;1336;-86
2024/01/20 00:17:13;;;;;;;35.40;24.60;;;;;;;;;;461822;29;1186;-87
2024/01/20 00:17:28;;;;;;;35.30;25.02;;;;;;;;;;463666;29;963;-87
2024/01/20 00:17:43;;;;;;;37.30;25.27;;;;;;;;;;468062;28;1010;-87
2024/01/20 00:17:59;;;;;;;37.77;25.67;;;;;;;;;;466323;28;1392;-87
2024/01/20 00:18:14;;;;;;;38.20;26.00;;;;;;;;;;464301;29;1204;-87
2024/01/20 00:18:29;;;;;;;37.63;25.47;;;;;;;;;;465320;29;1193;-86
2024/01/20 00:18:45;;;;;;;37.22;25.30;;;;;;;;;;471287;28;1208;-86
2024/01/20 00:19:00;;;;;;;38.17;25.60;;;;;;;;;;464884;28;1055;-86
2024/01/20 00:19:16;;;;;;;38.17;25.88;;;;;;;;;;468620;28;1178;-87
2024/01/20 00:19:31;;;;;;;37.93;25.87;;;;;;;;;;467343;28;1197;-85
2024/01/20 00:19:47;;;;;;;38.55;26.50;;;;;;;;;;467016;29;1057;-86
2024/01/20 00:20:04;;;;;;;40.27;27.20;;;;;;;;;;469845;29;1306;-86
2024/01/20 00:20:19;;;;;;;40.97;26.92;;;;;;;;;;469871;29;1052;-85
2024/01/20 00:20:35;;;;;;;41.25;27.15;;;;;;;;;;468742;28;903;-86
2024/01/20 00:20:50;;;;;;;39.90;27.07;;;;;;;;;;467259;28;1353;-86
2024/01/20 00:21:06;;;;;;;38.42;26.63;;;;;;;;;;466740;28;885;-86
2024/01/20 00:21:21;;;;;;;37.93;26.70;;;;;;;;;;468251;28;1132;-85
2024/01/20 00:21:39;;;;;;;39.15;27.25;;;;;;;;;;473933;28;1246;-86
2024/01/20 00:21:54;;;;;;;39.65;27.48;;;;;;;;;;467856;28;949;-90
2024/01/20 00:22:10;;;;;;;39.90;27.07;;;;;;;;;;467552;28;1244;-86
2024/01/20 00:22:25;;;;;;;39.27;26.67;;;;;;;;;;467035;28;1013;-86
2024/01/20 00:22:42;;;;;;;41.38;27.42;;;;;;;;;;475386;28;895;-86
2024/01/20 00:22:57;;;;;;;41.75;27.60;;;;;;;;;;467610;28;1326;-85
2024/01/20 00:23:13;;;;;;;40.78;27.50;;;;;;;;;;467731;28;1141;-87
2024/01/20 00:23:29;;;;;;;42.30;27.77;;;;;;;;;;469167;28;1123;-86
2024/01/20 00:23:44;;;;;;;42.83;27.77;;;;;;;;;;474775;28;1123;-87
2024/01/20 00:24:00;;;;;;;39.72;27.30;;;;;;;;;;467653;28;1261;-86
2024/01/20 00:24:15;;;;;;;41.13;26.90;;;;;;;;;;466399;28;1268;-86
2024/01/20 00:24:31;;;;;;;44.97;27.33;;;;;;;;;;463561;28;1138;-87
2024/01/20 00:24:46;;;;;;;42.80;27.30;;;;;;;;;;470121;29;1130;-87
2024/01/20 00:25:02;;;;;;;41.35;27.13;;;;;;;;;;481240;28;1371;-87
2024/01/20 00:25:18;;;;;;;42.13;27.30;;;;;;;;;;469452;29;1181;-86
2024/01/20 00:25:33;;;;;;;40.37;26.80;;;;;;;;;;469778;29;917;-86
2024/01/20 00:25:48;;;;;;;39.03;26.52;;;;;;;;;;464852;28;1159;-87
2024/01/20 00:26:04;;;;;;;38.23;26.03;;;;;;;;;;467446;28;939;-87
2024/01/20 00:26:19;;;;;;;37.95;25.33;;;;;;;;;;467364;28;946;-87
2024/01/20 00:26:35;;;;;;;36.50;24.97;;;;;;;;;;471541;28;967;-87
2024/01/20 00:26:50;;;;;;;36.38;25.77;;;;;;;;;;468006;28;1283;-87
2024/01/20 00:27:06;;;;;;;39.93;27.03;;;;;;;;;;469667;28;1209;-87
2024/01/20 00:27:21;;;;;;;40.83;26.85;;;;;;;;;;467895;28;1336;-88
2024/01/20 00:27:37;;;;;;;40.30;26.80;;;;;;;;;;470852;28;1079;-87
2024/01/20 00:27:52;;;;;;;40.08;26.55;;;;;;;;;;465722;29;1103;-87
2024/01/20 00:28:08;;;;;;;39.60;26.13;;;;;;;;;;464070;29;1232;-87
2024/01/20 00:28:23;;;;;;;35.83;25.30;;;;;;;;;;464200;28;911;-86
2024/01/20 00:28:38;;;;;;;34.17;24.87;;;;;;;;;;471432;29;1225;-87
2024/01/20 00:28:54;;;;;;;37.53;25.67;;;;;;;;;;464879;28;3184;-87
2024/01/20 00:29:09;;;;;;;38.97;25.87;;;;;;;;;;465026;28;1035;-87
2024/01/20 00:29:25;;;;;;;38.90;25.90;;;;;;;;;;465337;28;1004;-87
2024/01/20 00:29:40;;;;;;;37.50;25.53;;;;;;;;;;470534;29;1166;-87
2024/01/20 00:29:55;;;;;;;36.90;25.67;;;;;;;;;;463868;28;980;-88
2024/01/20 00:30:11;;;;;;;37.05;25.58;;;;;;;;;;477629;28;1194;-87
2024/01/20 00:30:27;;;;;;;38.38;25.70;;;;;;;;;;465582;28;1160;-87
2024/01/20 00:30:42;;;;;;;38.07;25.70;;;;;;;;;;474038;28;1206;-87
2024/01/20 00:30:57;;;;;;;37.50;25.92;;;;;;;;;;467143;28;1220;-87
2024/01/20 00:31:13;;;;;;;39.87;26.70;;;;;;;;;;467610;28;974;-87
2024/01/20 00:31:28;;;;;;;38.90;26.33;;;;;;;;;;466299;28;1166;-87
2024/01/20 00:31:44;;;;;;;37.60;25.83;;;;;;;;;;471830;28;1188;-87
2024/01/20 00:31:59;;;;;;;38.37;25.73;;;;;;;;;;463978;29;1111;-87
2024/01/20 00:32:15;;;;;;;37.45;25.65;;;;;;;;;;462742;29;1003;-87
2024/01/20 00:32:30;;;;;;;38.17;25.93;;;;;;;;;;462359;29;1268;-86
2024/01/20 00:32:45;;;;;;;39.22;25.92;;;;;;;;;;471612;29;933;-87
2024/01/20 00:33:02;;;;;;;35.23;24.33;;;;;;;;;;463477;29;1191;-87
2024/01/20 00:33:17;;;;;;;33.05;23.85;;;;;;;;;;470136;29;899;-86
2024/01/20 00:33:33;;;;;;;32.67;23.90;;;;;;;;;;465290;29;1170;-86
2024/01/20 00:33:48;;;;;;;34.90;24.73;;;;;;;;;;469603;28;908;-87
2024/01/20 00:34:03;;;;;;;38.60;26.17;;;;;;;;;;464369;28;1376;-86
2024/01/20 00:34:19;;;;;;;38.43;25.87;;;;;;;;;;469784;28;980;-86
2024/01/20 00:34:35;;;;;;;37.55;25.75;;;;;;;;;;471420;28;933;-85
2024/01/20 00:34:50;;;;;;;35.53;25.25;;;;;;;;;;469001;28;953;-87
2024/01/20 00:35:06;;;;;;;36.30;25.37;;;;;;;;;;464537;29;1175;-87
2024/01/20 00:35:21;;;;;;;40.70;26.60;;;;;;;;;;462833;29;1132;-87
2024/01/20 00:35:42;;;;;;;41.83;27.20;;;;;;;;;;469022;29;1005;-86
2024/01/20 00:35:57;;;;;;;40.22;26.63;;;;;;;;;;463107;29;958;-87
2024/01/20 00:36:13;;;;;;;41.80;26.83;;;;;;;;;;469186;29;1938;-88
2024/01/20 00:36:28;;;;;;;39.33;25.67;;;;;;;;;;464794;29;1123;-87
2024/01/20 00:36:44;;;;;;;35.67;25.23;;;;;;;;;;471058;29;955;-86
2024/01/20 00:37:03;;;;;;;37.10;25.90;;;;;;;;;;464508;28;1280;-88
2024/01/20 00:37:19;;;;;;;37.63;25.80;;;;;;;;;;467550;28;1150;-87
2024/01/20 00:37:37;;;;;;;37.00;25.77;;;;;;;;;;473016;28;1328;-87
2024/01/20 00:37:53;;;;;;;37.03;25.65;;;;;;;;;;470953;28;1069;-87
2024/01/20 00:38:09;;;;;;;37.35;25.40;;;;;;;;;;466757;28;1324;-87
2024/01/20 00:38:25;;;;;;;36.78;25.63;;;;;;;;;;466282;28;1303;-87
2024/01/20 00:38:42;;;;;;;36.80;26.33;;;;;;;;;;475098;28;1391;-87
2024/01/20 00:38:58;;;;;;;37.84;26.58;;;;;;;;;;478276;29;1269;-86
2024/01/20 00:39:14;;;;;;;38.83;26.40;;;;;;;;;;474514;29;1261;-86
2024/01/20 00:39:30;;;;;;;38.05;25.30;;;;;;;;;;464382;29;919;-87
2024/01/20 00:39:45;;;;;;;35.27;24.27;;;;;;;;;;466600;29;1124;-87
2024/01/20 00:40:01;;;;;;;35.03;24.85;;;;;;;;;;463501;29;1158;-86
2024/01/20 00:40:17;;;;;;;37.95;25.90;;;;;;;;;;463682;29;1300;-87
2024/01/20 00:40:32;;;;;;;38.72;25.92;;;;;;;;;;468522;28;1267;-87
2024/01/20 00:40:48;;;;;;;38.77;26.33;;;;;;;;;;474002;28;1235;-90
2024/01/20 00:41:03;;;;;;;39.50;26.55;;;;;;;;;;467223;28;943;-87
2024/01/20 00:41:19;;;;;;;39.00;26.37;;;;;;;;;;467039;28;1399;-87
2024/01/20 00:41:34;;;;;;;37.63;26.13;;;;;;;;;;469358;28;1071;-86
2024/01/20 00:41:50;;;;;;;35.47;25.53;;;;;;;;;;469626;28;936;-87
2024/01/20 00:42:05;;;;;;;35.88;25.35;;;;;;;;;;479844;28;1210;-85
2024/01/20 00:42:21;;;;;;;37.57;26.27;;;;;;;;;;469284;28;1103;-87
2024/01/20 00:42:37;;;;;;;38.30;26.92;;;;;;;;;;470866;28;985;-87
2024/01/20 00:42:52;;;;;;;38.27;26.40;;;;;;;;;;467913;28;1331;-87
2024/01/20 00:43:07;;;;;;;38.67;26.20;;;;;;;;;;469519;28;981;-87
2024/01/20 00:43:23;;;;;;;39.43;26.17;;;;;;;;;;468506;28;957;-88
2024/01/20 00:43:38;;;;;;;38.35;26.25;;;;;;;;;;475686;28;1098;-87
2024/01/20 00:43:54;;;;;;;38.27;26.43;;;;;;;;;;468361;28;1349;-87
2024/01/20 00:44:09;;;;;;;38.83;26.38;;;;;;;;;;468207;28;1197;-88
2024/01/20 00:44:24;;;;;;;37.73;26.00;;;;;;;;;;468602;28;1203;-87
2024/01/20 00:44:41;;;;;;;36.93;25.50;;;;;;;;;;477828;28;1072;-86
2024/01/20 00:44:56;;;;;;;36.75;24.77;;;;;;;;;;466029;28;1320;-87
2024/01/20 00:45:12;;;;;;;37.10;25.27;;;;;;;;;;463376;29;1039;-87
2024/01/20 00:45:27;;;;;;;35.67;25.17;;;;;;;;;;464431;28;1013;-88
2024/01/20 00:45:43;;;;;;;35.60;24.90;;;;;;;;;;471185;29;1229;-88
2024/01/20 00:45:59;;;;;;;36.17;25.47;;;;;;;;;;464220;29;1375;-87
2024/01/20 00:46:14;;;;;;;35.75;25.48;;;;;;;;;;474273;28;1360;-88
2024/01/20 00:46:29;;;;;;;37.07;25.70;;;;;;;;;;464806;29;1005;-87
2024/01/20 00:46:45;;;;;;;39.97;25.35;;;;;;;;;;473135;28;1202;-87
2024/01/20 00:47:00;;;;;;;37.00;24.00;;;;;;;;;;463614;29;1051;-88
2024/01/20 00:47:15;;;;;;;36.10;24.30;;;;;;;;;;463687;29;947;-87
2024/01/20 00:47:31;;;;;;;39.20;25.67;;;;;;;;;;467928;28;1323;-87
2024/01/20 00:47:47;;;;;;;38.30;26.07;;;;;;;;;;471789;29;1185;-88
2024/01/20 00:48:02;;;;;;;37.10;25.83;;;;;;;;;;460585;29;1255;-86
2024/01/20 00:48:17;;;;;;;37.35;25.27;;;;;;;;;;471337;28;1043;-87
2024/01/20 00:48:33;;;;;;;37.03;25.03;;;;;;;;;;469925;28;1154;-87
2024/01/20 00:48:48;;;;;;;34.42;24.45;;;;;;;;;;472033;28;1249;-87
2024/01/20 00:49:04;;;;;;;33.70;24.40;;;;;;;;;;467061;28;902;-87
2024/01/20 00:49:19;;;;;;;34.93;25.10;;;;;;;;;;465890;28;1217;-87
2024/01/20 00:49:35;;;;;;;36.92;25.88;;;;;;;;;;470715;28;1012;-87
2024/01/20 00:49:50;;;;;;;36.53;25.57;;;;;;;;;;466502;28;1062;-88
2024/01/20 00:50:06;;;;;;;35.83;24.65;;;;;;;;;;465407;28;995;-86
2024/01/20 00:50:22;;;;;;;36.42;24.88;;;;;;;;;;465140;28;975;-87
2024/01/20 00:50:38;;;;;;;36.90;25.63;;;;;;;;;;472885;28;1255;-87
2024/01/20 00:50:53;;;;;;;36.30;25.50;;;;;;;;;;467348;28;1009;-87
2024/01/20 00:51:09;;;;;;;36.17;24.70;;;;;;;;;;466327;28;1111;-88
2024/01/20 00:51:24;;;;;;;36.80;25.10;;;;;;;;;;464952;28;1080;-87
2024/01/20 00:51:40;;;;;;;35.95;25.13;;;;;;;;;;473189;29;1194;-87
2024/01/20 00:51:56;;;;;;;35.20;24.70;;;;;;;;;;464493;29;963;-86
2024/01/20 00:52:11;;;;;;;37.83;25.50;;;;;;;;;;477322;29;1408;-87
2024/01/20 00:52:26;;;;;;;36.70;24.80;;;;;;;;;;462966;29;1076;-87
2024/01/20 00:52:42;;;;;;;35.30;24.47;;;;;;;;;;473185;29;1409;-87
2024/01/20 00:52:57;;;;;;;35.97;25.13;;;;;;;;;;461952;29;1285;-88
2024/01/20 00:53:13;;;;;;;36.23;24.73;;;;;;;;;;462199;29;911;-87
2024/01/20 00:53:28;;;;;;;37.05;24.95;;;;;;;;;;461826;29;1229;-87
2024/01/20 00:53:44;;;;;;;36.30;25.27;;;;;;;;;;474531;29;1104;-87
2024/01/20 00:53:59;;;;;;;35.58;25.38;;;;;;;;;;466941;28;1241;-87
2024/01/20 00:54:14;;;;;;;37.13;25.63;;;;;;;;;;466613;28;1177;-87
2024/01/20 00:54:30;;;;;;;37.15;25.17;;;;;;;;;;466913;28;1148;-87
2024/01/20 00:54:45;;;;;;;36.83;25.13;;;;;;;;;;475608;28;1001;-88
2024/01/20 00:55:00;;;;;;;36.70;25.40;;;;;;;;;;466900;28;1397;-88
2024/01/20 00:55:16;;;;;;;37.42;25.70;;;;;;;;;;465514;28;1385;-88
2024/01/20 00:55:31;;;;;;;38.53;26.10;;;;;;;;;;469856;29;1166;-87
2024/01/20 00:55:47;;;;;;;39.35;26.00;;;;;;;;;;471510;29;1037;-88
2024/01/20 00:56:03;;;;;;;39.53;25.90;;;;;;;;;;463554;29;1065;-88
2024/01/20 00:56:18;;;;;;;37.78;25.75;;;;;;;;;;463917;29;2029;-87
2024/01/20 00:56:34;;;;;;;36.77;25.77;;;;;;;;;;471212;28;1317;-85
2024/01/20 00:56:49;;;;;;;36.30;25.63;;;;;;;;;;474616;28;965;-87
2024/01/20 00:57:05;;;;;;;35.63;25.17;;;;;;;;;;469905;28;1513;-86
2024/01/20 00:57:20;;;;;;;37.37;25.37;;;;;;;;;;469212;28;895;-87
2024/01/20 00:57:36;;;;;;;38.53;26.02;;;;;;;;;;474140;28;1050;-86
2024/01/20 00:57:52;;;;;;;38.13;26.15;;;;;;;;;;470412;28;1131;-88
2024/01/20 00:58:07;;;;;;;39.80;26.43;;;;;;;;;;465940;28;1198;-87
2024/01/20 00:58:22;;;;;;;39.85;26.35;;;;;;;;;;466536;28;1028;-87
2024/01/20 00:58:38;;;;;;;37.43;26.07;;;;;;;;;;473322;28;942;-87
2024/01/20 00:58:53;;;;;;;38.28;26.63;;;;;;;;;;468261;28;1316;-87
2024/01/20 00:59:09;;;;;;;38.43;26.50;;;;;;;;;;470741;29;1572;-87
2024/01/20 00:59:24;;;;;;;36.03;25.70;;;;;;;;;;466480;29;1115;-87
2024/01/20 00:59:40;;;;;;;37.47;26.05;;;;;;;;;;469987;29;1084;-87
2024/01/20 00:59:56;;;;;;;40.67;27.02;;;;;;;;;;465863;29;1376;-87
2024/01/20 01:00:12;;;;;;;41.67;27.15;;;;;;;;;;464526;29;1081;-86
2024/01/20 01:00:27;;;;;;;40.37;27.10;;;;;;;;;;472084;29;883;-87
2024/01/20 01:00:42;;;;;;;40.17;27.63;;;;;;;;;;474685;28;1053;-87
2024/01/20 01:00:58;;;;;;;39.37;27.17;;;;;;;;;;468022;28;1447;-86
2024/01/20 01:01:13;;;;;;;38.40;27.02;;;;;;;;;;476724;29;1297;-87
2024/01/20 01:01:29;;;;;;;40.90;27.83;;;;;;;;;;466782;29;1229;-87
2024/01/20 01:01:44;;;;;;;42.17;28.20;;;;;;;;;;477487;28;1369;-88
2024/01/20 01:02:00;;;;;;;40.93;28.03;;;;;;;;;;469379;28;1165;-87
2024/01/20 01:02:16;;;;;;;40.97;27.98;;;;;;;;;;477239;28;997;-86
2024/01/20 01:02:32;;;;;;;42.28;28.00;;;;;;;;;;470441;28;1395;-86
2024/01/20 01:02:47;;;;;;;40.53;27.80;;;;;;;;;;477153;28;1092;-87
2024/01/20 01:03:03;;;;;;;40.30;28.03;;;;;;;;;;467883;28;1432;-86
2024/01/20 01:03:19;;;;;;;43.60;28.42;;;;;;;;;;473751;28;1103;-87
2024/01/20 01:03:34;;;;;;;41.08;28.02;;;;;;;;;;470202;28;1182;-86
2024/01/20 01:03:49;;;;;;;39.80;27.50;;;;;;;;;;464825;28;1276;-89
2024/01/20 01:04:06;;;;;;;41.42;27.48;;;;;;;;;;467813;28;1091;-87
2024/01/20 01:04:22;;;;;;;41.05;27.23;;;;;;;;;;467782;28;906;-87
2024/01/20 01:04:37;;;;;;;41.25;27.90;;;;;;;;;;474512;28;1042;-86
2024/01/20 01:04:53;;;;;;;40.92;27.88;;;;;;;;;;470325;28;1218;-87
2024/01/20 01:05:09;;;;;;;40.27;28.17;;;;;;;;;;466642;28;1295;-87
2024/01/20 01:05:24;;;;;;;41.65;28.80;;;;;;;;;;467735;28;1261;-87
2024/01/20 01:05:40;;;;;;;42.33;28.33;;;;;;;;;;475054;28;1051;-86
2024/01/20 01:05:55;;;;;;;40.00;27.37;;;;;;;;;;466340;28;1284;-87
2024/01/20 01:06:11;;;;;;;38.30;26.98;;;;;;;;;;462797;29;1198;-87
2024/01/20 01:06:26;;;;;;;38.43;27.27;;;;;;;;;;464346;29;1278;-87
2024/01/20 01:06:41;;;;;;;39.60;27.15;;;;;;;;;;474027;29;1171;-88
2024/01/20 01:06:57;;;;;;;41.50;27.30;;;;;;;;;;463641;29;1056;-87
2024/01/20 01:07:12;;;;;;;41.87;27.73;;;;;;;;;;464751;29;1190;-87
2024/01/20 01:07:28;;;;;;;40.40;27.70;;;;;;;;;;461743;29;1209;-87
2024/01/20 01:07:46;;;;;;;38.10;26.83;;;;;;;;;;476275;29;1305;-87
2024/01/20 01:08:20;;;;;;;39.55;27.05;;;;;;;;;;499572;29;1199;-89
2024/01/20 01:08:44;;;;;;;40.22;27.35;;;;;;;;;;467953;28;1417;-77
2024/01/20 01:09:00;;;;;;;40.25;27.65;;;;;;;;;;472736;28;1753;-87
2024/01/20 01:09:15;;;;;;;40.25;27.52;;;;;;;;;;477465;28;1176;-77
2024/01/20 01:09:31;;;;;;;41.43;27.93;;;;;;;;;;469641;28;1328;-77
2024/01/20 01:09:46;;;;;;;41.25;28.08;;;;;;;;;;465096;29;1154;-77
2024/01/20 01:10:03;;;;;;;39.70;27.63;;;;;;;;;;463940;29;1073;-77
2024/01/20 01:10:18;;;;;;;39.65;27.52;;;;;;;;;;466812;28;1086;-77
2024/01/20 01:13:47;;;;;;;42.53;28.00;;;;;;;;;;470071;28;1293;-77
2024/01/20 01:14:02;;;;;;;41.08;27.52;;;;;;;;;;467632;28;1201;-76
2024/01/20 01:14:18;;;;;;;41.40;27.55;;;;;;;;;;467992;28;1089;-77
2024/01/20 01:14:34;;;;;;;42.05;27.45;;;;;;;;;;468832;28;1031;-77
2024/01/20 01:14:49;;;;;;;41.87;27.57;;;;;;;;;;477480;28;1112;-77
2024/01/20 01:15:05;;;;;;;41.92;27.48;;;;;;;;;;475253;28;1521;-77
2024/01/20 01:15:21;;;;;;;41.35;27.63;;;;;;;;;;478561;28;1094;-77
2024/01/20 01:15:36;;;;;;;39.30;26.83;;;;;;;;;;471772;28;1012;-77
2024/01/20 01:15:52;;;;;;;40.05;26.80;;;;;;;;;;477817;28;1216;-77
2024/01/20 01:16:08;;;;;;;39.88;26.85;;;;;;;;;;471357;28;1117;-77
2024/01/20 01:16:23;;;;;;;40.93;27.67;;;;;;;;;;471001;28;1154;-77
2024/01/20 01:16:39;;;;;;;41.00;28.05;;;;;;;;;;473088;28;907;-77
2024/01/20 01:16:54;;;;;;;39.57;27.23;;;;;;;;;;475725;28;1026;-77
2024/01/20 01:17:10;;;;;;;41.15;27.45;;;;;;;;;;466294;28;1125;-76
2024/01/20 01:17:25;;;;;;;39.97;27.10;;;;;;;;;;466523;28;1046;-77
2024/01/20 01:17:41;;;;;;;37.40;26.67;;;;;;;;;;475759;28;1166;-76
2024/01/20 01:17:56;;;;;;;38.95;27.20;;;;;;;;;;474161;28;1086;-77
2024/01/20 01:18:12;;;;;;;39.80;26.93;;;;;;;;;;469678;28;1213;-77
2024/01/20 01:18:27;;;;;;;38.38;26.55;;;;;;;;;;465897;28;1217;-77
2024/01/20 01:18:43;;;;;;;40.03;26.97;;;;;;;;;;473929;28;1351;-77
2024/01/20 01:18:58;;;;;;;40.55;26.80;;;;;;;;;;470951;28;1112;-76
2024/01/20 01:19:15;;;;;;;39.50;26.27;;;;;;;;;;477733;28;1145;-77
2024/01/20 01:19:31;;;;;;;39.30;26.35;;;;;;;;;;469123;28;1299;-76
2024/01/20 01:19:46;;;;;;;38.83;26.50;;;;;;;;;;472331;29;1309;-77
2024/01/20 01:20:03;;;;;;;37.57;26.17;;;;;;;;;;465685;28;1313;-77
2024/01/20 01:20:18;;;;;;;36.95;26.50;;;;;;;;;;476838;28;1446;-77
2024/01/20 01:20:34;;;;;;;39.20;27.07;;;;;;;;;;468299;28;1318;-77
2024/01/20 01:20:49;;;;;;;44.72;27.30;;;;;;;;;;477623;28;1229;-76
2024/01/20 01:21:04;;;;;;;42.97;26.73;;;;;;;;;;463170;29;1353;-77
2024/01/20 01:21:20;;;;;;;39.63;26.73;;;;;;;;;;474448;29;1286;-77
2024/01/20 01:21:35;;;;;;;40.73;27.13;;;;;;;;;;467272;29;1218;-77
2024/01/20 01:21:51;;;;;;;39.03;26.63;;;;;;;;;;466660;28;1325;-77
2024/01/20 01:22:07;;;;;;;39.55;27.13;;;;;;;;;;477151;28;1281;-76
2024/01/20 01:22:22;;;;;;;38.17;26.87;;;;;;;;;;475607;28;1100;-76
2024/01/20 01:22:38;;;;;;;36.30;25.73;;;;;;;;;;471932;28;1220;-77
2024/01/20 01:22:53;;;;;;;36.57;25.20;;;;;;;;;;476475;28;1397;-76
2024/01/20 01:23:09;;;;;;;35.33;24.73;;;;;;;;;;463455;29;1183;-76
2024/01/20 01:23:24;;;;;;;34.60;24.50;;;;;;;;;;464668;29;1172;-76
2024/01/20 01:23:40;;;;;;;37.95;26.35;;;;;;;;;;470340;29;1413;-77
2024/01/20 01:23:55;;;;;;;40.87;27.37;;;;;;;;;;470842;28;918;-77
2024/01/20 01:24:11;;;;;;;38.88;26.10;;;;;;;;;;471519;28;919;-77
2024/01/20 01:24:27;;;;;;;38.40;26.13;;;;;;;;;;470895;28;1364;-76
2024/01/20 01:24:42;;;;;;;38.97;26.57;;;;;;;;;;475448;28;1205;-77
2024/01/20 01:24:58;;;;;;;39.45;26.70;;;;;;;;;;470871;28;1363;-77
2024/01/20 01:25:13;;;;;;;40.53;26.77;;;;;;;;;;476512;29;1374;-77
2024/01/20 01:25:29;;;;;;;37.47;25.75;;;;;;;;;;469453;28;1119;-76
2024/01/20 01:25:44;;;;;;;34.87;25.17;;;;;;;;;;477467;28;1109;-76
2024/01/20 01:26:00;;;;;;;36.33;25.73;;;;;;;;;;470301;28;1213;-78
2024/01/20 01:26:15;;;;;;;37.40;26.08;;;;;;;;;;478622;28;1189;-77
2024/01/20 01:26:31;;;;;;;37.27;25.87;;;;;;;;;;464883;28;1201;-77
2024/01/20 01:26:46;;;;;;;35.92;25.60;;;;;;;;;;475815;29;1362;-76
2024/01/20 01:27:02;;;;;;;37.83;26.07;;;;;;;;;;465924;29;1354;-76
2024/01/20 01:27:17;;;;;;;39.75;26.67;;;;;;;;;;463560;29;1087;-76
2024/01/20 01:27:33;;;;;;;38.87;26.57;;;;;;;;;;464200;29;1229;-77
2024/01/20 01:27:49;;;;;;;38.63;26.50;;;;;;;;;;468665;29;1020;-76
2024/01/20 01:28:04;;;;;;;37.90;25.95;;;;;;;;;;461664;29;1147;-76
2024/01/20 01:28:20;;;;;;;39.17;26.10;;;;;;;;;;463825;29;935;-76
2024/01/20 01:28:35;;;;;;;39.90;26.30;;;;;;;;;;466510;29;1487;-77
2024/01/20 01:28:51;;;;;;;39.13;26.53;;;;;;;;;;474129;29;1371;-76
2024/01/20 01:29:06;;;;;;;38.35;26.65;;;;;;;;;;474814;29;1155;-76
2024/01/20 01:29:22;;;;;;;37.90;26.20;;;;;;;;;;475448;28;1036;-76
2024/01/20 01:29:37;;;;;;;40.25;26.90;;;;;;;;;;470534;29;1214;-76
2024/01/20 01:29:53;;;;;;;38.97;26.97;;;;;;;;;;473378;29;1265;-76
2024/01/20 01:30:08;;;;;;;37.17;26.27;;;;;;;;;;463670;28;1051;-76
2024/01/20 01:30:24;;;;;;;39.53;26.45;;;;;;;;;;469498;28;1412;-76
2024/01/20 01:30:39;;;;;;;38.93;26.27;;;;;;;;;;474555;28;1271;-76
2024/01/20 01:30:55;;;;;;;39.22;26.25;;;;;;;;;;473046;28;1256;-77
2024/01/20 01:31:10;;;;;;;39.43;26.47;;;;;;;;;;465238;28;1295;-76
2024/01/20 01:31:26;;;;;;;38.33;26.65;;;;;;;;;;465130;28;1260;-76
2024/01/20 01:31:43;;;;;;;37.87;26.27;;;;;;;;;;474404;28;1343;-76
2024/01/20 01:31:58;;;;;;;36.42;25.95;;;;;;;;;;471271;28;1178;-76
2024/01/20 01:32:14;;;;;;;36.42;26.33;;;;;;;;;;477035;28;1043;-76
2024/01/20 01:32:29;;;;;;;37.10;26.30;;;;;;;;;;468432;28;1202;-76
2024/01/20 01:32:45;;;;;;;38.00;26.52;;;;;;;;;;475066;28;1387;-76
2024/01/20 01:33:00;;;;;;;39.07;26.97;;;;;;;;;;463764;29;1330;-76
2024/01/20 01:33:16;;;;;;;39.20;26.55;;;;;;;;;;462200;29;1019;-76
2024/01/20 01:33:31;;;;;;;37.43;25.97;;;;;;;;;;464402;29;1066;-76
2024/01/20 01:33:46;;;;;;;37.47;26.10;;;;;;;;;;474834;29;959;-77
2024/01/20 01:34:02;;;;;;;37.47;26.20;;;;;;;;;;467133;29;1065;-76
2024/01/20 01:34:17;;;;;;;36.67;26.15;;;;;;;;;;463634;29;1081;-76
2024/01/20 01:34:33;;;;;;;37.17;25.90;;;;;;;;;;467212;28;913;-77
2024/01/20 01:34:48;;;;;;;37.45;26.17;;;;;;;;;;478438;28;1491;-77
2024/01/20 01:35:04;;;;;;;36.50;25.73;;;;;;;;;;467177;28;1325;-76
2024/01/20 01:35:19;;;;;;;36.50;25.52;;;;;;;;;;468142;28;1181;-76
2024/01/20 01:35:35;;;;;;;37.83;26.20;;;;;;;;;;470160;28;1101;-76
2024/01/20 01:35:51;;;;;;;39.70;26.58;;;;;;;;;;478581;28;1385;-76
2024/01/20 01:36:06;;;;;;;38.97;26.20;;;;;;;;;;466071;28;1050;-76
2024/01/20 01:36:23;;;;;;;37.83;26.33;;;;;;;;;;474990;28;1939;-76
2024/01/20 01:36:38;;;;;;;38.30;26.13;;;;;;;;;;472837;28;909;-77
2024/01/20 01:36:54;;;;;;;36.92;26.15;;;;;;;;;;469299;28;1305;-76
2024/01/20 01:37:09;;;;;;;36.27;25.97;;;;;;;;;;470701;28;1098;-76
2024/01/20 01:37:25;;;;;;;35.95;25.65;;;;;;;;;;472891;28;1301;-76